Time;durP1;ratioP1;P1;durP2;ratioP2;P2;SDS_P1;SDS_P2;PMS_P1;PMS_P2;Temp;Humidity;BMP_temperature;BMP_pressure;BME280_temperature;BME280_humidity;BME280_pressure;Samples;Min_cycle;Max_cycle;Signal;HPM_P1;HPM_P2
2022/06/14 00:01:24;;;;;;;4.33;1.23;;;;;;;;;;5042640;28;20209;-63
2022/06/14 00:03:52;;;;;;;2.90;1.00;;;;;;;;;;5045250;28;20356;-63
2022/06/14 00:06:20;;;;;;;2.50;1.13;;;;;;;;;;5045075;28;20202;-63
2022/06/14 00:08:47;;;;;;;3.03;1.20;;;;;;;;;;5047886;28;20198;-63
2022/06/14 00:11:17;;;;;;;1.30;0.80;;;;;;;;;;5046428;28;20198;-63
2022/06/14 00:13:44;;;;;;;2.73;1.10;;;;;;;;;;5047437;28;20293;-63
2022/06/14 00:16:12;;;;;;;2.47;1.37;;;;;;;;;;5047856;28;20186;-63
2022/06/14 00:18:40;;;;;;;2.70;1.20;;;;;;;;;;5046747;28;20714;-63
2022/06/14 00:21:07;;;;;;;1.93;1.20;;;;;;;;;;5042826;28;20201;-63
2022/06/14 00:23:35;;;;;;;3.57;1.10;;;;;;;;;;5050164;28;20194;-63
2022/06/14 00:26:02;;;;;;;1.93;1.27;;;;;;;;;;5040409;28;20219;-63
2022/06/14 00:28:31;;;;;;;1.83;1.00;;;;;;;;;;5047348;28;20190;-62
2022/06/14 00:31:09;;;;;;;2.07;1.00;;;;;;;;;;5049538;28;20199;-63
2022/06/14 00:33:36;;;;;;;1.83;1.03;;;;;;;;;;5038937;28;20200;-63
2022/06/14 00:36:05;;;;;;;4.40;1.07;;;;;;;;;;5040051;28;20230;-63
2022/06/14 00:38:34;;;;;;;2.43;1.17;;;;;;;;;;5031163;28;20194;-63
2022/06/14 00:41:01;;;;;;;1.60;1.13;;;;;;;;;;5049990;28;20212;-63
2022/06/14 00:43:30;;;;;;;1.30;1.00;;;;;;;;;;5049798;28;20273;-63
2022/06/14 00:46:06;;;;;;;3.13;1.00;;;;;;;;;;5038716;28;20735;-62
2022/06/14 00:48:34;;;;;;;3.90;1.30;;;;;;;;;;5043673;28;20213;-63
2022/06/14 00:51:05;;;;;;;1.67;0.90;;;;;;;;;;5049135;28;20206;-63
2022/06/14 00:54:07;;;;;;;2.80;1.17;;;;;;;;;;5049306;28;20201;-63
2022/06/14 00:56:41;;;;;;;2.20;1.07;;;;;;;;;;4967824;28;20351;-62
2022/06/14 00:59:10;;;;;;;1.53;1.20;;;;;;;;;;5033433;28;20241;-62
2022/06/14 01:01:40;;;;;;;3.50;1.10;;;;;;;;;;5047059;28;20648;-62
2022/06/14 01:04:10;;;;;;;2.03;1.03;;;;;;;;;;5042537;28;20187;-63
2022/06/14 01:06:49;;;;;;;1.90;1.00;;;;;;;;;;5017259;28;20198;-63
2022/06/14 01:09:38;;;;;;;2.63;1.30;;;;;;;;;;5053678;28;20233;-63
2022/06/14 01:12:17;;;;;;;2.70;1.10;;;;;;;;;;5040533;28;20195;-63
2022/06/14 01:14:54;;;;;;;2.67;1.13;;;;;;;;;;5046865;28;20229;-63
2022/06/14 01:17:21;;;;;;;2.03;1.03;;;;;;;;;;5043647;28;20195;-62
2022/06/14 01:19:49;;;;;;;1.57;1.10;;;;;;;;;;5046283;28;20542;-63
2022/06/14 01:22:19;;;;;;;1.57;1.10;;;;;;;;;;5044287;28;20194;-63
2022/06/14 01:24:46;;;;;;;1.90;0.93;;;;;;;;;;5045476;28;20218;-62
2022/06/14 01:27:15;;;;;;;1.90;1.20;;;;;;;;;;5047277;28;20202;-63
2022/06/14 01:29:45;;;;;;;2.90;1.40;;;;;;;;;;5049211;28;20550;-63
2022/06/14 01:32:13;;;;;;;1.93;1.10;;;;;;;;;;5045464;28;20197;-62
2022/06/14 01:34:43;;;;;;;2.10;1.10;;;;;;;;;;5048517;28;20225;-63
2022/06/14 01:37:10;;;;;;;1.87;1.00;;;;;;;;;;5045239;28;20719;-62
2022/06/14 01:39:38;;;;;;;2.67;1.00;;;;;;;;;;5023100;28;20203;-63
2022/06/14 01:42:18;;;;;;;1.93;1.10;;;;;;;;;;5045189;28;20190;-63
2022/06/14 01:44:57;;;;;;;2.00;1.20;;;;;;;;;;5048275;28;20205;-62
2022/06/14 01:47:57;;;;;;;3.07;1.40;;;;;;;;;;5047309;28;20194;-63
2022/06/14 01:53:37;;;;;;;1.60;1.10;;;;;;;;;;5038353;28;20197;-63
2022/06/14 01:56:07;;;;;;;2.13;1.00;;;;;;;;;;5041294;28;20631;-63
2022/06/14 01:58:34;;;;;;;1.70;1.20;;;;;;;;;;5047790;28;20205;-63
2022/06/14 02:01:14;;;;;;;1.33;0.90;;;;;;;;;;5044793;28;20214;-63
2022/06/14 02:06:50;;;;;;;1.67;1.00;;;;;;;;;;5048219;28;20202;-62
2022/06/14 02:09:27;;;;;;;1.87;0.90;;;;;;;;;;5041969;28;20723;-62
2022/06/14 02:11:55;;;;;;;1.57;0.80;;;;;;;;;;5043090;28;20194;-63
2022/06/14 02:14:28;;;;;;;1.63;1.00;;;;;;;;;;5048241;28;20389;-63
2022/06/14 02:16:59;;;;;;;2.40;1.13;;;;;;;;;;5029955;28;20205;-63
2022/06/14 02:19:34;;;;;;;2.20;1.10;;;;;;;;;;5046798;28;20662;-62
2022/06/14 02:22:28;;;;;;;3.00;1.20;;;;;;;;;;5044916;28;20213;-62
2022/06/14 02:24:58;;;;;;;1.50;1.20;;;;;;;;;;5044993;28;20218;-63
2022/06/14 02:27:43;;;;;;;3.73;1.30;;;;;;;;;;5047240;28;20186;-63
2022/06/14 02:30:15;;;;;;;2.77;1.53;;;;;;;;;;5044450;28;20205;-62
2022/06/14 02:32:42;;;;;;;2.30;1.10;;;;;;;;;;5045850;28;20194;-62
2022/06/14 02:35:09;;;;;;;1.60;1.00;;;;;;;;;;5043088;28;20236;-63
2022/06/14 02:37:36;;;;;;;3.10;1.20;;;;;;;;;;5037649;28;20237;-63
2022/06/14 02:40:19;;;;;;;3.13;1.40;;;;;;;;;;5046513;28;20206;-62
2022/06/14 02:43:13;;;;;;;3.40;1.80;;;;;;;;;;5046837;28;20194;-62
2022/06/14 02:45:43;;;;;;;2.17;1.10;;;;;;;;;;5041413;28;20209;-63
2022/06/14 02:48:31;;;;;;;3.23;1.00;;;;;;;;;;5037598;28;20906;-63
2022/06/14 02:51:06;;;;;;;1.70;1.13;;;;;;;;;;5042708;28;20194;-63
2022/06/14 02:53:39;;;;;;;2.43;1.20;;;;;;;;;;5047678;28;20205;-62
2022/06/14 02:56:13;;;;;;;1.87;1.00;;;;;;;;;;5045180;28;20206;-62
2022/06/14 02:58:45;;;;;;;2.57;1.10;;;;;;;;;;5043104;28;20191;-63
2022/06/14 03:01:15;;;;;;;3.00;1.13;;;;;;;;;;5043286;28;20229;-63
2022/06/14 03:03:48;;;;;;;4.33;1.10;;;;;;;;;;5043829;28;20193;-63
2022/06/14 03:06:36;;;;;;;3.30;1.23;;;;;;;;;;5043373;28;20563;-62
2022/06/14 03:09:09;;;;;;;2.13;1.00;;;;;;;;;;5046153;28;20306;-62
2022/06/14 03:11:42;;;;;;;1.70;0.90;;;;;;;;;;5045274;28;20273;-62
2022/06/14 03:14:28;;;;;;;1.67;1.00;;;;;;;;;;5041484;28;20213;-63
2022/06/14 03:17:05;;;;;;;2.27;1.10;;;;;;;;;;5044736;28;20194;-62
2022/06/14 03:19:58;;;;;;;2.37;1.30;;;;;;;;;;5045755;28;20197;-63
2022/06/14 03:22:44;;;;;;;2.40;1.23;;;;;;;;;;5045756;28;20198;-62
2022/06/14 03:25:11;;;;;;;3.07;1.13;;;;;;;;;;5043179;28;20718;-63
2022/06/14 03:28:07;;;;;;;1.80;0.80;;;;;;;;;;5045795;28;20202;-63
2022/06/14 03:30:36;;;;;;;2.43;1.20;;;;;;;;;;4948447;28;20253;-62
2022/06/14 03:33:10;;;;;;;3.90;1.47;;;;;;;;;;5046761;28;20214;-62
2022/06/14 03:35:41;;;;;;;3.87;1.00;;;;;;;;;;5040551;28;20230;-63
2022/06/14 03:38:11;;;;;;;3.30;1.10;;;;;;;;;;5041231;28;20947;-63
2022/06/14 03:40:38;;;;;;;2.20;1.17;;;;;;;;;;5046882;28;20639;-63
2022/06/14 03:43:05;;;;;;;1.80;1.20;;;;;;;;;;5047361;28;20549;-62
2022/06/14 03:45:53;;;;;;;3.30;1.40;;;;;;;;;;5051556;28;20827;-63
2022/06/14 03:48:20;;;;;;;5.57;1.03;;;;;;;;;;4990789;28;20222;-62
2022/06/14 03:50:53;;;;;;;3.87;1.50;;;;;;;;;;5042604;28;20194;-62
2022/06/14 03:53:35;;;;;;;2.20;1.30;;;;;;;;;;5050800;28;20187;-62
2022/06/14 03:56:11;;;;;;;2.67;1.33;;;;;;;;;;5047710;28;20277;-62
2022/06/14 03:58:57;;;;;;;3.77;1.10;;;;;;;;;;5047803;28;20189;-63
2022/06/14 04:01:27;;;;;;;2.40;1.00;;;;;;;;;;5048493;28;20210;-62
2022/06/14 04:04:10;;;;;;;2.80;1.20;;;;;;;;;;5029310;28;20263;-62
2022/06/14 04:06:45;;;;;;;3.57;1.10;;;;;;;;;;5047566;28;20202;-62
2022/06/14 04:09:20;;;;;;;1.93;1.17;;;;;;;;;;5046197;28;20225;-62
2022/06/14 04:11:51;;;;;;;1.80;1.03;;;;;;;;;;5049674;28;20643;-60
2022/06/14 04:14:21;;;;;;;2.25;1.10;;;;;;;;;;5045339;28;20549;-60
2022/06/14 04:17:15;;;;;;;1.90;0.90;;;;;;;;;;5029813;28;20420;-62
2022/06/14 04:19:58;;;;;;;1.60;1.00;;;;;;;;;;5037519;28;20218;-63
2022/06/14 04:22:25;;;;;;;3.43;1.10;;;;;;;;;;5047171;28;20194;-59
2022/06/14 04:25:02;;;;;;;2.20;1.27;;;;;;;;;;5047514;28;20222;-59
2022/06/14 04:27:31;;;;;;;2.53;1.17;;;;;;;;;;5044374;28;20291;-61
2022/06/14 04:30:17;;;;;;;1.60;1.10;;;;;;;;;;5037797;28;20194;-61
2022/06/14 04:32:57;;;;;;;3.33;1.20;;;;;;;;;;5041482;28;20220;-61
2022/06/14 04:35:37;;;;;;;1.40;1.10;;;;;;;;;;5049667;28;20690;-61
2022/06/14 04:38:09;;;;;;;2.97;1.70;;;;;;;;;;5044273;28;20635;-61
2022/06/14 04:40:47;;;;;;;1.93;1.10;;;;;;;;;;5049807;28;20753;-63
2022/06/14 04:43:18;;;;;;;2.90;1.20;;;;;;;;;;5048255;28;20581;-63
2022/06/14 04:45:45;;;;;;;2.60;1.37;;;;;;;;;;5049722;28;20198;-61
2022/06/14 04:48:19;;;;;;;2.17;0.97;;;;;;;;;;5044754;28;20230;-60
2022/06/14 04:50:56;;;;;;;3.23;1.00;;;;;;;;;;5043970;28;20198;-63
2022/06/14 04:53:43;;;;;;;4.20;1.50;;;;;;;;;;5045052;28;20198;-63
2022/06/14 04:56:18;;;;;;;2.30;1.17;;;;;;;;;;5001640;28;20230;-63
2022/06/14 04:59:01;;;;;;;14.50;4.63;;;;;;;;;;5046466;28;20224;-63
2022/06/14 05:01:48;;;;;;;16.00;4.73;;;;;;;;;;5019351;28;20209;-63
2022/06/14 05:04:44;;;;;;;9.73;4.33;;;;;;;;;;5048180;28;20592;-63
2022/06/14 05:07:33;;;;;;;18.57;5.23;;;;;;;;;;5041924;28;20198;-61
2022/06/14 05:10:06;;;;;;;9.77;3.83;;;;;;;;;;5039095;28;20213;-61
2022/06/14 05:12:57;;;;;;;13.63;4.60;;;;;;;;;;5040115;28;20214;-61
2022/06/14 05:15:31;;;;;;;7.30;3.50;;;;;;;;;;5048137;28;20214;-63
2022/06/14 05:18:06;;;;;;;9.67;2.93;;;;;;;;;;5038483;28;20819;-63
2022/06/14 05:20:55;;;;;;;8.43;3.20;;;;;;;;;;5041371;28;20230;-59
2022/06/14 05:23:52;;;;;;;7.13;3.00;;;;;;;;;;5048779;28;20190;-59
2022/06/14 05:26:25;;;;;;;7.40;2.50;;;;;;;;;;5039833;28;20276;-59
2022/06/14 05:29:01;;;;;;;8.83;3.30;;;;;;;;;;5047550;28;20202;-59
2022/06/14 05:31:44;;;;;;;28.20;8.87;;;;;;;;;;5030486;28;20197;-60
2022/06/14 05:34:14;;;;;;;40.33;13.13;;;;;;;;;;5039647;28;20656;-60
2022/06/14 05:36:52;;;;;;;39.23;14.13;;;;;;;;;;5043864;28;20703;-63
2022/06/14 05:39:24;;;;;;;46.17;13.67;;;;;;;;;;5045547;28;20198;-63
2022/06/14 05:41:56;;;;;;;45.17;13.50;;;;;;;;;;5030395;28;20190;-63
2022/06/14 05:44:32;;;;;;;33.23;11.03;;;;;;;;;;5046891;28;20640;-63
2022/06/14 05:47:02;;;;;;;27.00;10.37;;;;;;;;;;5047847;28;20739;-61
2022/06/14 05:49:33;;;;;;;28.57;8.83;;;;;;;;;;5045836;28;20209;-61
2022/06/14 05:52:13;;;;;;;25.13;8.50;;;;;;;;;;5037401;28;20198;-65
2022/06/14 05:54:44;;;;;;;20.93;7.40;;;;;;;;;;5048222;28;20518;-61
2022/06/14 05:57:16;;;;;;;27.40;7.73;;;;;;;;;;5048804;28;20209;-61
2022/06/14 05:59:49;;;;;;;30.10;10.83;;;;;;;;;;5044978;28;20248;-60
2022/06/14 06:02:26;;;;;;;33.33;10.70;;;;;;;;;;5041349;28;20191;-66
2022/06/14 06:05:05;;;;;;;25.00;8.70;;;;;;;;;;5043941;28;20217;-66
2022/06/14 06:07:35;;;;;;;16.33;6.47;;;;;;;;;;5044372;28;20203;-64
2022/06/14 06:10:05;;;;;;;22.20;6.60;;;;;;;;;;5043152;28;20195;-65
2022/06/14 06:12:43;;;;;;;12.13;4.60;;;;;;;;;;5029262;28;20550;-65
2022/06/14 06:15:17;;;;;;;10.10;3.67;;;;;;;;;;5040755;28;20298;-64
2022/06/14 06:17:51;;;;;;;10.70;3.50;;;;;;;;;;5027425;28;20581;-64
2022/06/14 06:20:21;;;;;;;8.17;3.00;;;;;;;;;;5045687;28;20194;-64
2022/06/14 06:22:49;;;;;;;12.57;2.57;;;;;;;;;;5040395;28;20206;-66
2022/06/14 06:25:18;;;;;;;5.97;2.63;;;;;;;;;;5043598;28;20214;-65
2022/06/14 06:28:07;;;;;;;6.50;2.30;;;;;;;;;;5041284;28;20216;-65
2022/06/14 06:30:54;;;;;;;6.03;2.10;;;;;;;;;;5042152;28;20194;-65
2022/06/14 06:33:24;;;;;;;8.90;2.40;;;;;;;;;;5041868;28;20984;-65
2022/06/14 06:35:55;;;;;;;9.73;2.53;;;;;;;;;;5041093;28;20804;-66
2022/06/14 06:38:28;;;;;;;8.43;2.70;;;;;;;;;;5041143;28;20191;-67
2022/06/14 06:43:53;;;;;;;7.03;2.30;;;;;;;;;;5042370;28;20202;-64
2022/06/14 06:46:22;;;;;;;7.37;2.50;;;;;;;;;;5046380;28;20198;-64
2022/06/14 06:48:54;;;;;;;6.70;2.40;;;;;;;;;;5040060;28;20253;-64
2022/06/14 06:51:24;;;;;;;7.63;2.57;;;;;;;;;;5045885;28;20194;-66
2022/06/14 06:54:05;;;;;;;5.97;2.20;;;;;;;;;;5026642;28;20634;-66
2022/06/14 06:56:44;;;;;;;5.47;2.50;;;;;;;;;;5044933;28;20271;-68
2022/06/14 06:59:37;;;;;;;7.00;2.93;;;;;;;;;;5043034;28;20249;-66
2022/06/14 07:02:16;;;;;;;5.53;2.63;;;;;;;;;;5040082;28;20582;-65
2022/06/14 07:05:05;;;;;;;5.37;2.10;;;;;;;;;;5036021;28;20225;-65
2022/06/14 07:07:43;;;;;;;4.67;1.90;;;;;;;;;;5045531;28;20198;-65
2022/06/14 07:10:20;;;;;;;4.97;2.20;;;;;;;;;;5041842;28;20190;-64
2022/06/14 07:12:59;;;;;;;7.60;2.23;;;;;;;;;;5041027;28;20237;-65
2022/06/14 07:15:32;;;;;;;3.70;1.90;;;;;;;;;;5044030;28;20221;-66
2022/06/14 07:18:04;;;;;;;3.67;1.90;;;;;;;;;;5041633;28;20194;-66
2022/06/14 07:20:34;;;;;;;6.40;1.93;;;;;;;;;;5025880;28;20229;-66
2022/06/14 07:23:10;;;;;;;6.10;2.00;;;;;;;;;;5046970;28;20194;-65
2022/06/14 07:25:52;;;;;;;8.17;2.13;;;;;;;;;;5040367;28;20214;-63
2022/06/14 07:28:24;;;;;;;6.27;2.07;;;;;;;;;;5026805;28;20209;-63
2022/06/14 07:30:54;;;;;;;3.50;1.67;;;;;;;;;;5042267;28;20194;-64
2022/06/14 07:33:24;;;;;;;6.23;2.00;;;;;;;;;;5045419;28;20213;-64
2022/06/14 07:36:10;;;;;;;4.27;2.03;;;;;;;;;;5043089;28;20222;-64
2022/06/14 07:38:53;;;;;;;5.57;1.90;;;;;;;;;;5041836;28;20194;-64
2022/06/14 07:41:33;;;;;;;4.37;1.50;;;;;;;;;;5015218;28;20190;-63
2022/06/14 07:44:19;;;;;;;4.07;1.50;;;;;;;;;;5041110;28;20202;-64
2022/06/14 07:47:05;;;;;;;3.83;1.50;;;;;;;;;;5041918;28;20878;-64
2022/06/14 07:49:58;;;;;;;3.40;1.43;;;;;;;;;;5041068;28;20249;-64
2022/06/14 07:52:45;;;;;;;5.47;1.70;;;;;;;;;;5044806;28;20194;-64
2022/06/14 07:55:15;;;;;;;4.00;1.80;;;;;;;;;;5045601;28;20198;-64
2022/06/14 07:57:45;;;;;;;4.03;1.67;;;;;;;;;;5041873;28;20564;-65
2022/06/14 08:03:16;;;;;;;2.23;1.30;;;;;;;;;;5039340;28;20640;-64
2022/06/14 08:05:48;;;;;;;6.20;1.70;;;;;;;;;;5042116;28;20264;-65
2022/06/14 08:08:30;;;;;;;5.57;2.10;;;;;;;;;;5026808;28;20851;-65
2022/06/14 08:11:05;;;;;;;4.67;1.40;;;;;;;;;;5040001;28;20217;-65
2022/06/14 08:13:40;;;;;;;4.53;1.60;;;;;;;;;;5042904;28;20759;-66
2022/06/14 08:16:14;;;;;;;3.03;1.20;;;;;;;;;;5024948;28;20793;-64
2022/06/14 08:18:47;;;;;;;3.67;1.57;;;;;;;;;;5027919;28;20195;-65
2022/06/14 08:21:40;;;;;;;5.40;1.60;;;;;;;;;;5043654;28;20201;-65
2022/06/14 08:24:21;;;;;;;4.27;1.87;;;;;;;;;;5040037;28;20268;-65
2022/06/14 08:27:01;;;;;;;3.37;1.70;;;;;;;;;;5035290;28;20222;-64
2022/06/14 08:29:53;;;;;;;3.83;1.83;;;;;;;;;;5037204;28;20206;-64
2022/06/14 08:32:29;;;;;;;2.87;1.37;;;;;;;;;;5047465;28;20284;-65
2022/06/14 08:35:09;;;;;;;3.17;1.70;;;;;;;;;;5035188;28;20202;-64
2022/06/14 08:37:44;;;;;;;3.87;1.57;;;;;;;;;;5042898;28;20241;-64
2022/06/14 08:40:36;;;;;;;2.60;1.13;;;;;;;;;;5015167;28;20198;-63
2022/06/14 08:43:10;;;;;;;4.70;1.40;;;;;;;;;;5039273;28;20208;-64
2022/06/14 08:45:39;;;;;;;4.50;1.60;;;;;;;;;;5046170;28;20201;-63
2022/06/14 08:48:15;;;;;;;3.13;1.57;;;;;;;;;;5042476;28;20209;-65
2022/06/14 08:50:46;;;;;;;3.20;1.60;;;;;;;;;;5045798;28;20612;-64
2022/06/14 08:53:32;;;;;;;4.47;1.60;;;;;;;;;;5046730;28;20190;-63
2022/06/14 08:56:02;;;;;;;4.47;1.50;;;;;;;;;;5042705;28;20219;-63
2022/06/14 08:58:48;;;;;;;2.80;1.40;;;;;;;;;;5048276;28;20209;-62
2022/06/14 09:01:26;;;;;;;4.97;1.83;;;;;;;;;;5042759;28;20210;-63
2022/06/14 09:03:57;;;;;;;7.90;1.90;;;;;;;;;;5044315;28;20225;-63
2022/06/14 09:06:43;;;;;;;3.67;1.63;;;;;;;;;;5028908;28;20211;-64
2022/06/14 09:09:19;;;;;;;4.37;1.70;;;;;;;;;;5036923;28;20206;-64
2022/06/14 09:11:57;;;;;;;4.93;1.57;;;;;;;;;;5045662;28;20206;-63
2022/06/14 09:14:27;;;;;;;4.07;1.40;;;;;;;;;;5047321;28;20201;-63
2022/06/14 09:17:06;;;;;;;3.70;1.60;;;;;;;;;;5046639;28;20237;-63
2022/06/14 09:19:53;;;;;;;4.33;1.67;;;;;;;;;;5042632;28;20220;-63
2022/06/14 09:22:36;;;;;;;3.23;1.50;;;;;;;;;;5048685;28;20190;-65
2022/06/14 09:25:40;;;;;;;3.37;1.47;;;;;;;;;;5016044;28;20278;-64
2022/06/14 09:28:19;;;;;;;4.70;1.43;;;;;;;;;;5035565;28;20195;-64
2022/06/14 09:30:59;;;;;;;5.10;1.40;;;;;;;;;;5051981;28;20210;-65
2022/06/14 09:33:54;;;;;;;5.43;1.40;;;;;;;;;;5049434;28;20711;-67
2022/06/14 09:36:34;;;;;;;4.60;1.47;;;;;;;;;;5039987;28;20317;-67
2022/06/14 09:39:09;;;;;;;8.93;1.70;;;;;;;;;;5021484;28;20199;-67
2022/06/14 09:41:37;;;;;;;4.00;1.30;;;;;;;;;;5037244;28;20205;-67
2022/06/14 09:44:04;;;;;;;4.17;1.60;;;;;;;;;;5043035;28;20209;-67
2022/06/14 09:46:53;;;;;;;3.23;1.57;;;;;;;;;;5049098;28;20193;-68
2022/06/14 09:49:42;;;;;;;4.13;1.60;;;;;;;;;;5042268;28;20214;-68
2022/06/14 09:52:28;;;;;;;4.10;1.60;;;;;;;;;;5045371;28;20263;-67
2022/06/14 09:55:14;;;;;;;6.07;1.70;;;;;;;;;;5048584;28;20205;-67
2022/06/14 09:57:59;;;;;;;3.47;1.50;;;;;;;;;;5030661;28;20214;-69
2022/06/14 10:00:33;;;;;;;4.53;1.77;;;;;;;;;;5043627;28;20215;-66
2022/06/14 10:03:20;;;;;;;5.23;1.60;;;;;;;;;;5036639;28;20205;-66
2022/06/14 10:05:54;;;;;;;4.27;1.70;;;;;;;;;;5044545;28;20202;-66
2022/06/14 10:08:26;;;;;;;6.50;1.83;;;;;;;;;;5046207;28;20190;-66
2022/06/14 10:11:18;;;;;;;3.50;1.30;;;;;;;;;;5048473;28;20190;-66
2022/06/14 10:14:10;;;;;;;3.23;1.60;;;;;;;;;;5035426;28;20198;-66
2022/06/14 10:16:42;;;;;;;5.37;1.80;;;;;;;;;;5044415;28;20210;-66
2022/06/14 10:19:38;;;;;;;2.57;1.63;;;;;;;;;;5043963;28;20219;-67
2022/06/14 10:22:06;;;;;;;4.83;1.60;;;;;;;;;;5040902;28;20199;-67
2022/06/14 10:24:44;;;;;;;4.13;1.70;;;;;;;;;;5023288;28;20264;-67
2022/06/14 10:30:37;;;;;;;5.23;1.87;;;;;;;;;;5040235;28;20193;-68
2022/06/14 10:33:25;;;;;;;3.67;1.40;;;;;;;;;;5039533;28;20194;-68
2022/06/14 10:36:16;;;;;;;3.87;1.63;;;;;;;;;;5037377;28;20230;-66
2022/06/14 10:38:46;;;;;;;4.37;1.53;;;;;;;;;;5043518;28;20202;-66
2022/06/14 10:41:33;;;;;;;4.13;1.63;;;;;;;;;;5045249;28;20289;-66
2022/06/14 10:44:22;;;;;;;3.67;1.90;;;;;;;;;;5041092;28;20214;-66
2022/06/14 10:47:15;;;;;;;3.40;1.40;;;;;;;;;;5043557;28;20201;-66
2022/06/14 10:49:54;;;;;;;4.63;1.47;;;;;;;;;;5037828;28;20206;-68
2022/06/14 10:52:45;;;;;;;3.80;1.40;;;;;;;;;;5043589;28;20279;-67
2022/06/14 10:55:35;;;;;;;3.87;1.40;;;;;;;;;;5027089;28;20190;-67
2022/06/14 10:58:25;;;;;;;3.73;1.73;;;;;;;;;;5040653;28;20505;-66
2022/06/14 11:00:59;;;;;;;3.37;1.73;;;;;;;;;;5039961;28;20210;-67
2022/06/14 11:03:45;;;;;;;4.03;1.50;;;;;;;;;;5043252;28;20256;-67
2022/06/14 11:06:33;;;;;;;3.57;1.60;;;;;;;;;;5040661;28;20218;-66
2022/06/14 11:09:20;;;;;;;3.80;1.50;;;;;;;;;;5046188;28;20233;-67
2022/06/14 11:12:01;;;;;;;2.10;1.40;;;;;;;;;;5024601;28;20182;-67
2022/06/14 11:14:42;;;;;;;4.60;1.70;;;;;;;;;;5032754;28;20199;-68
2022/06/14 11:17:33;;;;;;;4.10;1.47;;;;;;;;;;5038604;28;20210;-68
2022/06/14 11:20:12;;;;;;;4.60;1.60;;;;;;;;;;5030851;28;20213;-67
2022/06/14 11:23:11;;;;;;;3.20;1.60;;;;;;;;;;5012045;28;20363;-66
2022/06/14 11:26:08;;;;;;;3.47;1.37;;;;;;;;;;5037121;28;20210;-66
2022/06/14 11:28:41;;;;;;;2.97;1.40;;;;;;;;;;5027377;28;20186;-66
2022/06/14 11:31:27;;;;;;;5.20;1.53;;;;;;;;;;5045012;28;20206;-66
2022/06/14 11:34:13;;;;;;;3.87;1.60;;;;;;;;;;5037166;28;20233;-67
2022/06/14 11:36:59;;;;;;;3.13;1.50;;;;;;;;;;5023803;28;20902;-67
2022/06/14 11:39:32;;;;;;;5.07;1.70;;;;;;;;;;5028873;28;20199;-66
2022/06/14 11:42:05;;;;;;;3.67;1.77;;;;;;;;;;5040282;28;20214;-66
2022/06/14 11:44:47;;;;;;;3.50;1.57;;;;;;;;;;5044852;28;20283;-67
2022/06/14 11:47:28;;;;;;;5.30;1.83;;;;;;;;;;5027467;28;20621;-67
2022/06/14 11:50:11;;;;;;;5.00;1.73;;;;;;;;;;5035011;28;20532;-68
2022/06/14 11:52:52;;;;;;;3.13;1.13;;;;;;;;;;5040717;28;20679;-67
2022/06/14 11:55:32;;;;;;;3.43;1.50;;;;;;;;;;5043670;28;20206;-67
2022/06/14 11:58:11;;;;;;;3.83;1.80;;;;;;;;;;5023664;28;20525;-67
2022/06/14 12:00:57;;;;;;;2.83;1.10;;;;;;;;;;5036333;28;20218;-66
2022/06/14 12:03:24;;;;;;;2.53;1.53;;;;;;;;;;5042218;28;20823;-67
2022/06/14 12:06:31;;;;;;;4.33;1.60;;;;;;;;;;5038848;28;20210;-67
2022/06/14 12:09:07;;;;;;;4.70;1.33;;;;;;;;;;4949292;28;20284;-67
2022/06/14 12:11:53;;;;;;;3.17;1.50;;;;;;;;;;4943718;28;20205;-67
2022/06/14 12:14:23;;;;;;;2.40;1.10;;;;;;;;;;4997579;28;20233;-67
2022/06/14 12:16:58;;;;;;;2.30;1.10;;;;;;;;;;5048597;28;20387;-66
2022/06/14 12:19:30;;;;;;;2.57;1.50;;;;;;;;;;5048266;28;20196;-66
2022/06/14 12:22:28;;;;;;;3.03;1.30;;;;;;;;;;5046469;28;20186;-67
2022/06/14 12:28:16;;;;;;;2.93;1.50;;;;;;;;;;5038029;28;20244;-67
2022/06/14 12:30:50;;;;;;;3.07;1.43;;;;;;;;;;5045591;28;20214;-67
2022/06/14 12:33:30;;;;;;;3.50;1.70;;;;;;;;;;5013382;28;20191;-67
2022/06/14 12:36:26;;;;;;;3.40;1.50;;;;;;;;;;5042909;28;20249;-66
2022/06/14 12:38:57;;;;;;;3.67;1.37;;;;;;;;;;5043858;28;20199;-66
2022/06/14 12:41:37;;;;;;;4.27;1.60;;;;;;;;;;5031453;28;20201;-66
2022/06/14 12:44:28;;;;;;;3.80;1.50;;;;;;;;;;5027134;28;20628;-66
2022/06/14 12:47:05;;;;;;;2.97;1.50;;;;;;;;;;5039232;28;20203;-69
2022/06/14 12:49:38;;;;;;;4.27;1.57;;;;;;;;;;5044429;28;20660;-68
2022/06/14 12:52:43;;;;;;;3.17;1.23;;;;;;;;;;5037153;28;20274;-67
2022/06/14 12:55:31;;;;;;;3.40;1.47;;;;;;;;;;4959013;28;20261;-68
2022/06/14 12:58:19;;;;;;;3.07;1.50;;;;;;;;;;5031765;28;20241;-68
2022/06/14 13:01:15;;;;;;;3.07;1.40;;;;;;;;;;5046804;28;20210;-67
2022/06/14 13:03:56;;;;;;;3.00;1.50;;;;;;;;;;5044925;28;20268;-67
2022/06/14 13:06:43;;;;;;;4.47;1.93;;;;;;;;;;5046680;28;20205;-66
2022/06/14 13:09:23;;;;;;;2.70;1.43;;;;;;;;;;5048398;28;20221;-66
2022/06/14 13:12:08;;;;;;;2.57;1.20;;;;;;;;;;5046491;28;20198;-69
2022/06/14 13:14:40;;;;;;;4.37;1.30;;;;;;;;;;5048891;28;20526;-69
2022/06/14 13:17:18;;;;;;;3.40;1.60;;;;;;;;;;5044401;28;20217;-69
2022/06/14 13:20:05;;;;;;;5.30;1.57;;;;;;;;;;5049752;28;20194;-69
2022/06/14 13:22:39;;;;;;;2.33;1.37;;;;;;;;;;5045437;28;20206;-69
2022/06/14 13:25:25;;;;;;;3.13;1.40;;;;;;;;;;5047253;28;20566;-67
2022/06/14 13:27:52;;;;;;;2.43;1.40;;;;;;;;;;5047028;28;20205;-67
2022/06/14 13:30:32;;;;;;;4.30;1.60;;;;;;;;;;5045918;28;20227;-68
2022/06/14 13:33:00;;;;;;;2.57;1.10;;;;;;;;;;5031828;28;20590;-69
2022/06/14 13:35:39;;;;;;;2.17;1.23;;;;;;;;;;5027986;28;20941;-67
2022/06/14 13:38:16;;;;;;;4.13;1.37;;;;;;;;;;5037352;28;20234;-66
2022/06/14 13:41:01;;;;;;;2.90;1.50;;;;;;;;;;5047329;28;20182;-68
2022/06/14 13:43:29;;;;;;;4.17;1.73;;;;;;;;;;5040473;28;20182;-69
2022/06/14 13:46:01;;;;;;;2.30;1.40;;;;;;;;;;5042955;28;20190;-67
2022/06/14 13:48:38;;;;;;;3.97;1.67;;;;;;;;;;5044142;28;20256;-67
2022/06/14 13:51:05;;;;;;;6.13;1.93;;;;;;;;;;5046661;28;20198;-69
2022/06/14 13:53:38;;;;;;;3.10;1.60;;;;;;;;;;5049582;28;20187;-69
2022/06/14 13:56:09;;;;;;;3.23;1.47;;;;;;;;;;5042523;28;20240;-69
2022/06/14 13:58:47;;;;;;;2.47;1.10;;;;;;;;;;5053323;28;20516;-69
2022/06/14 14:01:19;;;;;;;3.07;1.53;;;;;;;;;;5044323;28;20210;-67
2022/06/14 14:04:06;;;;;;;4.37;1.53;;;;;;;;;;5041154;28;20836;-66
2022/06/14 14:07:00;;;;;;;3.17;1.50;;;;;;;;;;5024566;28;20191;-67
2022/06/14 14:09:46;;;;;;;4.40;1.50;;;;;;;;;;5029273;28;20245;-67
2022/06/14 14:12:16;;;;;;;2.20;1.10;;;;;;;;;;5035152;28;20198;-66
2022/06/14 14:14:47;;;;;;;4.67;1.50;;;;;;;;;;5044672;28;20205;-66
2022/06/14 14:17:17;;;;;;;1.93;1.30;;;;;;;;;;5043056;28;20211;-66
2022/06/14 14:19:47;;;;;;;3.30;1.30;;;;;;;;;;5021432;28;20229;-66
2022/06/14 14:22:17;;;;;;;3.87;1.50;;;;;;;;;;5045587;28;20206;-66
2022/06/14 14:24:56;;;;;;;3.00;1.27;;;;;;;;;;5038799;28;20208;-66
2022/06/14 14:27:23;;;;;;;3.90;1.50;;;;;;;;;;5017268;28;20198;-68
2022/06/14 14:30:13;;;;;;;3.07;1.23;;;;;;;;;;5042217;28;20696;-68
2022/06/14 14:32:43;;;;;;;2.50;1.13;;;;;;;;;;5011406;28;20210;-69
2022/06/14 14:35:20;;;;;;;1.67;1.10;;;;;;;;;;5046940;28;20569;-69
2022/06/14 14:37:51;;;;;;;3.40;1.67;;;;;;;;;;5040052;28;20233;-69
2022/06/14 14:40:24;;;;;;;4.30;1.80;;;;;;;;;;5047146;28;20198;-69
2022/06/14 14:43:00;;;;;;;5.00;1.90;;;;;;;;;;5036262;28;20213;-68
2022/06/14 14:45:27;;;;;;;4.07;1.70;;;;;;;;;;5047415;28;20198;-68
2022/06/14 14:48:13;;;;;;;5.80;2.17;;;;;;;;;;5037609;28;20198;-67
2022/06/14 14:50:40;;;;;;;6.23;2.83;;;;;;;;;;5032206;28;20624;-68
2022/06/14 14:53:28;;;;;;;5.10;2.17;;;;;;;;;;5038463;28;20544;-67
2022/06/14 14:55:58;;;;;;;4.43;1.87;;;;;;;;;;5044217;28;20213;-67
2022/06/14 14:58:37;;;;;;;4.43;2.10;;;;;;;;;;5046297;28;20225;-67
2022/06/14 15:07:12;;;;;;;4.57;2.30;;;;;;;;;;5045064;28;20206;-68
2022/06/14 15:09:42;;;;;;;5.13;2.30;;;;;;;;;;5027935;28;20213;-67
2022/06/14 15:12:19;;;;;;;3.30;2.00;;;;;;;;;;5039529;28;20204;-67
2022/06/14 15:15:00;;;;;;;5.97;2.10;;;;;;;;;;5046636;28;20194;-66
2022/06/14 15:20:17;;;;;;;3.17;1.77;;;;;;;;;;5045672;28;20202;-67
2022/06/14 15:22:46;;;;;;;4.00;2.17;;;;;;;;;;5031536;28;20190;-67
2022/06/14 15:25:24;;;;;;;3.67;2.07;;;;;;;;;;5043428;28;20644;-67
2022/06/14 15:27:53;;;;;;;5.63;2.00;;;;;;;;;;5042300;28;20194;-67
2022/06/14 15:30:40;;;;;;;4.67;1.90;;;;;;;;;;5043706;28;20213;-67
2022/06/14 15:33:23;;;;;;;4.37;1.97;;;;;;;;;;5044146;28;20199;-66
2022/06/14 15:35:54;;;;;;;6.17;2.27;;;;;;;;;;5043001;28;20234;-66
2022/06/14 15:38:49;;;;;;;3.33;1.73;;;;;;;;;;5042225;28;20203;-68
2022/06/14 15:41:25;;;;;;;4.70;2.03;;;;;;;;;;5027398;28;20194;-65
2022/06/14 15:43:57;;;;;;;4.70;1.97;;;;;;;;;;5041034;28;20229;-68
2022/06/14 15:46:25;;;;;;;4.67;2.00;;;;;;;;;;5043997;28;20274;-67
2022/06/14 15:49:01;;;;;;;4.27;2.03;;;;;;;;;;5042860;28;20210;-67
2022/06/14 15:51:30;;;;;;;4.07;1.87;;;;;;;;;;5039884;28;20525;-66
2022/06/14 15:53:57;;;;;;;4.63;1.83;;;;;;;;;;5036939;28;20197;-66
2022/06/14 15:56:27;;;;;;;5.27;1.90;;;;;;;;;;5042275;28;20190;-67
2022/06/14 15:58:56;;;;;;;4.83;1.87;;;;;;;;;;5043304;28;20615;-68
2022/06/14 16:01:25;;;;;;;4.27;1.97;;;;;;;;;;5038752;28;20213;-66
2022/06/14 16:04:13;;;;;;;3.37;1.87;;;;;;;;;;5045602;28;20202;-65
2022/06/14 16:06:45;;;;;;;3.60;1.80;;;;;;;;;;5040535;28;20245;-69
2022/06/14 16:09:14;;;;;;;3.00;1.70;;;;;;;;;;5038795;28;20542;-67